sensor_id;sensor_type;location;lat;lon;timestamp;temperature;humidity
8527;DHT22;4301;48.362;8.478;2022-12-07T00:00:51;1.70;99.90
8527;DHT22;4301;48.362;8.478;2022-12-07T00:03:18;1.70;99.90
8527;DHT22;4301;48.362;8.478;2022-12-07T00:05:45;1.70;99.90
8527;DHT22;4301;48.362;8.478;2022-12-07T00:08:12;1.70;99.90
8527;DHT22;4301;48.362;8.478;2022-12-07T00:10:40;1.70;99.90
8527;DHT22;4301;48.362;8.478;2022-12-07T00:13:07;1.60;99.90
8527;DHT22;4301;48.362;8.478;2022-12-07T00:15:34;1.70;99.90
8527;DHT22;4301;48.362;8.478;2022-12-07T00:18:02;1.70;99.90
8527;DHT22;4301;48.362;8.478;2022-12-07T00:20:29;1.70;99.90
8527;DHT22;4301;48.362;8.478;2022-12-07T00:22:56;1.70;99.90
8527;DHT22;4301;48.362;8.478;2022-12-07T00:25:23;1.60;99.90
8527;DHT22;4301;48.362;8.478;2022-12-07T00:27:52;1.60;99.90
8527;DHT22;4301;48.362;8.478;2022-12-07T00:30:21;1.60;99.90
8527;DHT22;4301;48.362;8.478;2022-12-07T00:32:48;1.60;99.90
8527;DHT22;4301;48.362;8.478;2022-12-07T00:35:15;1.60;99.90
8527;DHT22;4301;48.362;8.478;2022-12-07T00:37:42;1.60;99.90
8527;DHT22;4301;48.362;8.478;2022-12-07T00:40:09;1.60;99.90
8527;DHT22;4301;48.362;8.478;2022-12-07T00:42:36;1.60;99.90
8527;DHT22;4301;48.362;8.478;2022-12-07T00:45:06;1.60;99.90
8527;DHT22;4301;48.362;8.478;2022-12-07T00:47:33;1.60;99.90
8527;DHT22;4301;48.362;8.478;2022-12-07T00:50:00;1.70;99.90
8527;DHT22;4301;48.362;8.478;2022-12-07T00:52:27;1.60;99.90
8527;DHT22;4301;48.362;8.478;2022-12-07T00:54:54;1.70;99.90
8527;DHT22;4301;48.362;8.478;2022-12-07T00:57:21;1.70;99.90
8527;DHT22;4301;48.362;8.478;2022-12-07T00:59:48;1.60;99.90
8527;DHT22;4301;48.362;8.478;2022-12-07T01:02:16;1.60;99.90
8527;DHT22;4301;48.362;8.478;2022-12-07T01:04:43;1.70;99.90
8527;DHT22;4301;48.362;8.478;2022-12-07T01:07:10;1.60;99.90
8527;DHT22;4301;48.362;8.478;2022-12-07T01:09:37;1.60;99.90
8527;DHT22;4301;48.362;8.478;2022-12-07T01:12:04;1.60;99.90
8527;DHT22;4301;48.362;8.478;2022-12-07T01:14:31;1.60;99.90
8527;DHT22;4301;48.362;8.478;2022-12-07T01:16:58;1.60;99.90
8527;DHT22;4301;48.362;8.478;2022-12-07T01:19:27;1.70;99.90
8527;DHT22;4301;48.362;8.478;2022-12-07T01:21:53;1.60;99.90
8527;DHT22;4301;48.362;8.478;2022-12-07T01:24:20;1.60;99.90
8527;DHT22;4301;48.362;8.478;2022-12-07T01:26:49;1.60;99.90
8527;DHT22;4301;48.362;8.478;2022-12-07T01:29:16;1.60;99.90
8527;DHT22;4301;48.362;8.478;2022-12-07T01:31:43;1.60;99.90
8527;DHT22;4301;48.362;8.478;2022-12-07T01:34:10;1.60;99.90
8527;DHT22;4301;48.362;8.478;2022-12-07T01:36:38;1.70;99.90
8527;DHT22;4301;48.362;8.478;2022-12-07T01:39:06;1.70;99.90
8527;DHT22;4301;48.362;8.478;2022-12-07T01:41:36;1.80;99.90
8527;DHT22;4301;48.362;8.478;2022-12-07T01:44:14;1.80;99.90
8527;DHT22;4301;48.362;8.478;2022-12-07T01:46:42;1.80;99.90
8527;DHT22;4301;48.362;8.478;2022-12-07T01:49:13;1.70;99.90
8527;DHT22;4301;48.362;8.478;2022-12-07T01:51:43;1.80;99.90
8527;DHT22;4301;48.362;8.478;2022-12-07T01:54:13;1.70;99.90
8527;DHT22;4301;48.362;8.478;2022-12-07T01:56:44;1.70;99.90
8527;DHT22;4301;48.362;8.478;2022-12-07T01:59:13;1.60;99.90
8527;DHT22;4301;48.362;8.478;2022-12-07T02:01:40;1.70;99.90
8527;DHT22;4301;48.362;8.478;2022-12-07T02:04:08;1.70;99.90
8527;DHT22;4301;48.362;8.478;2022-12-07T02:06:35;1.70;99.90
8527;DHT22;4301;48.362;8.478;2022-12-07T02:09:05;1.70;99.90
8527;DHT22;4301;48.362;8.478;2022-12-07T02:11:32;1.80;99.90
8527;DHT22;4301;48.362;8.478;2022-12-07T02:13:59;1.90;99.90
8527;DHT22;4301;48.362;8.478;2022-12-07T02:16:34;1.70;99.90
8527;DHT22;4301;48.362;8.478;2022-12-07T02:22:16;1.70;99.90
8527;DHT22;4301;48.362;8.478;2022-12-07T02:24:51;1.70;99.90
8527;DHT22;4301;48.362;8.478;2022-12-07T02:27:37;1.70;99.90
8527;DHT22;4301;48.362;8.478;2022-12-07T02:30:07;1.70;99.90
8527;DHT22;4301;48.362;8.478;2022-12-07T02:32:43;1.70;99.90
8527;DHT22;4301;48.362;8.478;2022-12-07T02:35:15;1.70;99.90
8527;DHT22;4301;48.362;8.478;2022-12-07T02:37:49;1.70;99.90
8527;DHT22;4301;48.362;8.478;2022-12-07T02:40:22;1.70;99.90
8527;DHT22;4301;48.362;8.478;2022-12-07T02:42:55;1.70;99.90
8527;DHT22;4301;48.362;8.478;2022-12-07T02:45:25;1.70;99.90
8527;DHT22;4301;48.362;8.478;2022-12-07T02:47:56;1.60;99.90
8527;DHT22;4301;48.362;8.478;2022-12-07T02:50:24;1.60;99.90
8527;DHT22;4301;48.362;8.478;2022-12-07T02:52:51;1.60;99.90
8527;DHT22;4301;48.362;8.478;2022-12-07T02:55:22;1.70;99.90
8527;DHT22;4301;48.362;8.478;2022-12-07T02:57:59;1.70;99.90
8527;DHT22;4301;48.362;8.478;2022-12-07T03:00:36;1.60;99.90
8527;DHT22;4301;48.362;8.478;2022-12-07T03:03:10;1.70;99.90
8527;DHT22;4301;48.362;8.478;2022-12-07T03:05:50;1.70;99.90
8527;DHT22;4301;48.362;8.478;2022-12-07T03:08:24;1.70;99.90
8527;DHT22;4301;48.362;8.478;2022-12-07T03:10:57;1.70;99.90
8527;DHT22;4301;48.362;8.478;2022-12-07T03:13:30;1.60;99.90
8527;DHT22;4301;48.362;8.478;2022-12-07T03:16:04;1.60;99.90
8527;DHT22;4301;48.362;8.478;2022-12-07T03:18:37;1.60;99.90
8527;DHT22;4301;48.362;8.478;2022-12-07T03:21:08;1.60;99.90
8527;DHT22;4301;48.362;8.478;2022-12-07T03:23:39;1.60;99.90
8527;DHT22;4301;48.362;8.478;2022-12-07T03:26:09;1.60;99.90
8527;DHT22;4301;48.362;8.478;2022-12-07T03:28:42;1.50;99.90
8527;DHT22;4301;48.362;8.478;2022-12-07T03:31:16;1.50;99.90
8527;DHT22;4301;48.362;8.478;2022-12-07T03:33:48;1.60;99.90
8527;DHT22;4301;48.362;8.478;2022-12-07T03:36:21;1.50;99.90
8527;DHT22;4301;48.362;8.478;2022-12-07T03:38:52;1.40;99.90
8527;DHT22;4301;48.362;8.478;2022-12-07T03:41:23;1.40;99.90
8527;DHT22;4301;48.362;8.478;2022-12-07T03:43:52;1.40;99.90
8527;DHT22;4301;48.362;8.478;2022-12-07T03:46:29;1.40;99.90
8527;DHT22;4301;48.362;8.478;2022-12-07T03:49:07;1.30;99.90
8527;DHT22;4301;48.362;8.478;2022-12-07T03:51:40;1.40;99.90
8527;DHT22;4301;48.362;8.478;2022-12-07T03:54:13;1.40;99.90
8527;DHT22;4301;48.362;8.478;2022-12-07T03:56:42;1.40;99.90
8527;DHT22;4301;48.362;8.478;2022-12-07T03:59:11;1.30;99.90
8527;DHT22;4301;48.362;8.478;2022-12-07T04:01:43;1.40;99.90
8527;DHT22;4301;48.362;8.478;2022-12-07T04:04:10;1.30;99.90
8527;DHT22;4301;48.362;8.478;2022-12-07T04:06:37;1.30;99.90
8527;DHT22;4301;48.362;8.478;2022-12-07T04:09:04;1.30;99.90
8527;DHT22;4301;48.362;8.478;2022-12-07T04:11:31;1.30;99.90
8527;DHT22;4301;48.362;8.478;2022-12-07T04:13:57;1.30;99.90
8527;DHT22;4301;48.362;8.478;2022-12-07T04:16:43;1.30;99.90
8527;DHT22;4301;48.362;8.478;2022-12-07T04:19:11;1.30;99.90
8527;DHT22;4301;48.362;8.478;2022-12-07T04:21:38;1.20;99.90
8527;DHT22;4301;48.362;8.478;2022-12-07T04:24:06;1.30;99.90
8527;DHT22;4301;48.362;8.478;2022-12-07T04:26:32;1.30;99.90
8527;DHT22;4301;48.362;8.478;2022-12-07T04:29:00;1.30;99.90
8527;DHT22;4301;48.362;8.478;2022-12-07T04:31:26;1.30;99.90
8527;DHT22;4301;48.362;8.478;2022-12-07T04:33:55;1.20;99.90
8527;DHT22;4301;48.362;8.478;2022-12-07T04:36:22;1.20;99.90
8527;DHT22;4301;48.362;8.478;2022-12-07T04:38:49;1.20;99.90
8527;DHT22;4301;48.362;8.478;2022-12-07T04:41:15;1.20;99.90
8527;DHT22;4301;48.362;8.478;2022-12-07T04:43:42;1.10;99.90
8527;DHT22;4301;48.362;8.478;2022-12-07T04:46:09;1.20;99.90
8527;DHT22;4301;48.362;8.478;2022-12-07T04:48:36;1.10;99.90
8527;DHT22;4301;48.362;8.478;2022-12-07T04:51:05;1.10;99.90
8527;DHT22;4301;48.362;8.478;2022-12-07T04:53:32;1.00;99.90
8527;DHT22;4301;48.362;8.478;2022-12-07T04:55:59;0.90;99.90
8527;DHT22;4301;48.362;8.478;2022-12-07T04:58:26;0.90;99.90
8527;DHT22;4301;48.362;8.478;2022-12-07T05:00:54;0.90;99.90
8527;DHT22;4301;48.362;8.478;2022-12-07T05:03:21;0.90;99.90
8527;DHT22;4301;48.362;8.478;2022-12-07T05:05:48;0.80;99.90
8527;DHT22;4301;48.362;8.478;2022-12-07T05:08:17;0.90;99.90
8527;DHT22;4301;48.362;8.478;2022-12-07T05:10:44;0.80;99.90
8527;DHT22;4301;48.362;8.478;2022-12-07T05:13:10;0.80;99.90
8527;DHT22;4301;48.362;8.478;2022-12-07T05:15:37;0.80;99.90
8527;DHT22;4301;48.362;8.478;2022-12-07T05:18:04;0.70;99.90
8527;DHT22;4301;48.362;8.478;2022-12-07T05:20:31;0.70;99.90
8527;DHT22;4301;48.362;8.478;2022-12-07T05:22:58;0.60;99.90
8527;DHT22;4301;48.362;8.478;2022-12-07T05:25:26;0.60;99.90
8527;DHT22;4301;48.362;8.478;2022-12-07T05:27:54;0.50;99.90
8527;DHT22;4301;48.362;8.478;2022-12-07T05:30:21;0.40;99.90
8527;DHT22;4301;48.362;8.478;2022-12-07T05:32:48;0.30;99.90
8527;DHT22;4301;48.362;8.478;2022-12-07T05:35:15;0.30;99.90
8527;DHT22;4301;48.362;8.478;2022-12-07T05:37:43;0.30;99.90
8527;DHT22;4301;48.362;8.478;2022-12-07T05:40:11;0.20;99.90
8527;DHT22;4301;48.362;8.478;2022-12-07T05:42:40;0.10;99.90
8527;DHT22;4301;48.362;8.478;2022-12-07T05:45:09;0.10;99.90
8527;DHT22;4301;48.362;8.478;2022-12-07T05:47:36;0.00;99.90
8527;DHT22;4301;48.362;8.478;2022-12-07T05:50:05;-0.10;99.90
8527;DHT22;4301;48.362;8.478;2022-12-07T05:52:32;-0.20;99.90
8527;DHT22;4301;48.362;8.478;2022-12-07T05:54:59;-0.20;99.90
8527;DHT22;4301;48.362;8.478;2022-12-07T05:57:26;-0.20;99.90
8527;DHT22;4301;48.362;8.478;2022-12-07T05:59:55;-0.20;99.90
8527;DHT22;4301;48.362;8.478;2022-12-07T06:02:20;-0.30;99.90
8527;DHT22;4301;48.362;8.478;2022-12-07T06:04:47;-0.30;99.90
8527;DHT22;4301;48.362;8.478;2022-12-07T06:07:15;-0.30;99.90
8527;DHT22;4301;48.362;8.478;2022-12-07T06:09:43;-0.30;99.90
8527;DHT22;4301;48.362;8.478;2022-12-07T06:12:10;-0.30;99.90
8527;DHT22;4301;48.362;8.478;2022-12-07T06:14:56;-0.30;99.90
8527;DHT22;4301;48.362;8.478;2022-12-07T06:17:23;-0.30;99.90
8527;DHT22;4301;48.362;8.478;2022-12-07T06:19:51;-0.30;99.90
8527;DHT22;4301;48.362;8.478;2022-12-07T06:22:18;-0.30;99.90
8527;DHT22;4301;48.362;8.478;2022-12-07T06:24:45;-0.30;99.90
8527;DHT22;4301;48.362;8.478;2022-12-07T06:27:12;-0.20;99.90
8527;DHT22;4301;48.362;8.478;2022-12-07T06:29:39;0.00;99.90
8527;DHT22;4301;48.362;8.478;2022-12-07T06:32:07;-0.20;99.90
8527;DHT22;4301;48.362;8.478;2022-12-07T06:34:34;-0.20;99.90
8527;DHT22;4301;48.362;8.478;2022-12-07T06:37:01;-0.20;99.90
8527;DHT22;4301;48.362;8.478;2022-12-07T06:39:29;-0.20;99.90
8527;DHT22;4301;48.362;8.478;2022-12-07T06:41:56;-0.20;99.90
8527;DHT22;4301;48.362;8.478;2022-12-07T06:44:24;-0.20;99.90
8527;DHT22;4301;48.362;8.478;2022-12-07T06:46:51;-0.10;99.90
8527;DHT22;4301;48.362;8.478;2022-12-07T06:49:19;-0.10;99.90
8527;DHT22;4301;48.362;8.478;2022-12-07T06:51:46;-0.10;99.90
8527;DHT22;4301;48.362;8.478;2022-12-07T06:54:14;-0.10;99.90
8527;DHT22;4301;48.362;8.478;2022-12-07T06:56:41;-0.10;99.90
8527;DHT22;4301;48.362;8.478;2022-12-07T06:59:08;-0.20;99.90
8527;DHT22;4301;48.362;8.478;2022-12-07T07:01:35;-0.20;99.90
8527;DHT22;4301;48.362;8.478;2022-12-07T07:04:03;-0.10;99.90
8527;DHT22;4301;48.362;8.478;2022-12-07T07:06:31;-0.10;99.90
8527;DHT22;4301;48.362;8.478;2022-12-07T07:08:58;-0.10;99.90
8527;DHT22;4301;48.362;8.478;2022-12-07T07:11:25;0.00;99.90
8527;DHT22;4301;48.362;8.478;2022-12-07T07:13:52;0.00;99.90
8527;DHT22;4301;48.362;8.478;2022-12-07T07:16:22;-0.10;99.90
8527;DHT22;4301;48.362;8.478;2022-12-07T07:18:49;0.00;99.90
8527;DHT22;4301;48.362;8.478;2022-12-07T07:21:16;0.00;99.90
8527;DHT22;4301;48.362;8.478;2022-12-07T07:23:44;0.00;99.90
8527;DHT22;4301;48.362;8.478;2022-12-07T07:26:11;0.10;99.90
8527;DHT22;4301;48.362;8.478;2022-12-07T07:28:39;0.10;99.90
8527;DHT22;4301;48.362;8.478;2022-12-07T07:31:05;0.20;99.90
8527;DHT22;4301;48.362;8.478;2022-12-07T07:33:32;0.20;99.90
8527;DHT22;4301;48.362;8.478;2022-12-07T07:35:59;0.20;99.90
8527;DHT22;4301;48.362;8.478;2022-12-07T07:38:26;0.30;99.90
8527;DHT22;4301;48.362;8.478;2022-12-07T07:40:55;0.30;99.90
8527;DHT22;4301;48.362;8.478;2022-12-07T07:43:21;0.30;99.90
8527;DHT22;4301;48.362;8.478;2022-12-07T07:45:48;0.30;99.90
8527;DHT22;4301;48.362;8.478;2022-12-07T07:48:16;0.40;99.90
8527;DHT22;4301;48.362;8.478;2022-12-07T07:50:43;0.40;99.90
8527;DHT22;4301;48.362;8.478;2022-12-07T07:53:10;0.40;99.90
8527;DHT22;4301;48.362;8.478;2022-12-07T07:55:37;0.40;99.90
8527;DHT22;4301;48.362;8.478;2022-12-07T07:58:05;0.40;99.90
8527;DHT22;4301;48.362;8.478;2022-12-07T08:00:32;0.40;99.90
8527;DHT22;4301;48.362;8.478;2022-12-07T08:02:59;0.50;99.90
8527;DHT22;4301;48.362;8.478;2022-12-07T08:05:26;0.60;99.90
8527;DHT22;4301;48.362;8.478;2022-12-07T08:07:52;0.50;99.90
8527;DHT22;4301;48.362;8.478;2022-12-07T08:10:19;0.50;99.90
8527;DHT22;4301;48.362;8.478;2022-12-07T08:12:46;0.60;99.90
8527;DHT22;4301;48.362;8.478;2022-12-07T08:15:32;0.60;99.90
8527;DHT22;4301;48.362;8.478;2022-12-07T08:17:59;0.70;99.90
8527;DHT22;4301;48.362;8.478;2022-12-07T08:20:26;0.80;99.90
8527;DHT22;4301;48.362;8.478;2022-12-07T08:22:53;0.80;99.90
8527;DHT22;4301;48.362;8.478;2022-12-07T08:25:20;0.90;99.90
8527;DHT22;4301;48.362;8.478;2022-12-07T08:27:49;0.90;99.90
8527;DHT22;4301;48.362;8.478;2022-12-07T08:30:17;1.00;99.90
8527;DHT22;4301;48.362;8.478;2022-12-07T08:32:46;1.00;99.90
8527;DHT22;4301;48.362;8.478;2022-12-07T08:35:13;1.00;99.90
8527;DHT22;4301;48.362;8.478;2022-12-07T08:37:40;1.10;99.90
8527;DHT22;4301;48.362;8.478;2022-12-07T08:40:09;1.20;99.90
8527;DHT22;4301;48.362;8.478;2022-12-07T08:42:36;1.20;99.90
8527;DHT22;4301;48.362;8.478;2022-12-07T08:45:07;1.10;95.60
8527;DHT22;4301;48.362;8.478;2022-12-07T08:47:34;1.20;99.90
8527;DHT22;4301;48.362;8.478;2022-12-07T08:50:04;1.30;99.90
8527;DHT22;4301;48.362;8.478;2022-12-07T08:52:34;1.50;99.90
8527;DHT22;4301;48.362;8.478;2022-12-07T08:55:01;1.70;99.90
8527;DHT22;4301;48.362;8.478;2022-12-07T08:57:29;1.80;75.10
8527;DHT22;4301;48.362;8.478;2022-12-07T08:59:57;1.90;33.20
8527;DHT22;4301;48.362;8.478;2022-12-07T09:02:24;2.00;29.10
8527;DHT22;4301;48.362;8.478;2022-12-07T09:04:51;2.10;35.60
8527;DHT22;4301;48.362;8.478;2022-12-07T09:07:19;2.30;19.60
8527;DHT22;4301;48.362;8.478;2022-12-07T09:09:46;2.40;1.00
8527;DHT22;4301;48.362;8.478;2022-12-07T09:12:13;2.50;1.00
8527;DHT22;4301;48.362;8.478;2022-12-07T09:14:40;2.60;1.00
8527;DHT22;4301;48.362;8.478;2022-12-07T09:17:08;2.70;1.00
8527;DHT22;4301;48.362;8.478;2022-12-07T09:19:35;2.80;1.00
8527;DHT22;4301;48.362;8.478;2022-12-07T09:22:03;2.90;1.00
8527;DHT22;4301;48.362;8.478;2022-12-07T09:24:32;3.00;1.00
8527;DHT22;4301;48.362;8.478;2022-12-07T09:26:59;2.80;1.00
8527;DHT22;4301;48.362;8.478;2022-12-07T09:29:26;2.90;1.00
8527;DHT22;4301;48.362;8.478;2022-12-07T09:31:53;2.90;1.00
8527;DHT22;4301;48.362;8.478;2022-12-07T09:34:20;3.00;1.00
8527;DHT22;4301;48.362;8.478;2022-12-07T09:36:47;3.00;1.00
8527;DHT22;4301;48.362;8.478;2022-12-07T09:39:14;3.00;1.00
8527;DHT22;4301;48.362;8.478;2022-12-07T09:41:44;3.00;1.00
8527;DHT22;4301;48.362;8.478;2022-12-07T09:44:14;2.80;1.00
8527;DHT22;4301;48.362;8.478;2022-12-07T09:46:43;2.90;1.00
8527;DHT22;4301;48.362;8.478;2022-12-07T09:49:14;3.00;1.00
8527;DHT22;4301;48.362;8.478;2022-12-07T09:51:42;3.20;1.00
8527;DHT22;4301;48.362;8.478;2022-12-07T09:54:12;3.30;1.00
8527;DHT22;4301;48.362;8.478;2022-12-07T09:56:41;3.40;1.00
8527;DHT22;4301;48.362;8.478;2022-12-07T09:59:13;3.50;1.00
8527;DHT22;4301;48.362;8.478;2022-12-07T10:01:47;3.60;1.00
8527;DHT22;4301;48.362;8.478;2022-12-07T10:04:15;3.60;1.00
8527;DHT22;4301;48.362;8.478;2022-12-07T10:06:43;3.70;99.90
8527;DHT22;4301;48.362;8.478;2022-12-07T10:09:11;3.80;1.00
8527;DHT22;4301;48.362;8.478;2022-12-07T10:12:02;3.90;99.90
8527;DHT22;4301;48.362;8.478;2022-12-07T10:14:32;3.70;99.90
8527;DHT22;4301;48.362;8.478;2022-12-07T10:17:00;3.80;1.00
8527;DHT22;4301;48.362;8.478;2022-12-07T10:19:28;3.90;99.90
8527;DHT22;4301;48.362;8.478;2022-12-07T10:22:09;3.90;99.90
8527;DHT22;4301;48.362;8.478;2022-12-07T10:24:37;3.90;99.90
8527;DHT22;4301;48.362;8.478;2022-12-07T10:27:18;3.90;99.90
8527;DHT22;4301;48.362;8.478;2022-12-07T10:29:49;3.80;1.00
8527;DHT22;4301;48.362;8.478;2022-12-07T10:32:31;3.80;1.00
8527;DHT22;4301;48.362;8.478;2022-12-07T10:35:23;3.90;1.00
8527;DHT22;4301;48.362;8.478;2022-12-07T10:37:52;3.70;1.00
8527;DHT22;4301;48.362;8.478;2022-12-07T10:40:32;3.50;99.90
8527;DHT22;4301;48.362;8.478;2022-12-07T10:43:07;3.30;1.00
8527;DHT22;4301;48.362;8.478;2022-12-07T10:45:55;3.30;1.00
8527;DHT22;4301;48.362;8.478;2022-12-07T10:48:33;3.20;1.00
8527;DHT22;4301;48.362;8.478;2022-12-07T10:51:11;3.20;1.00
8527;DHT22;4301;48.362;8.478;2022-12-07T10:53:53;3.30;1.00
8527;DHT22;4301;48.362;8.478;2022-12-07T10:56:47;3.40;1.00
8527;DHT22;4301;48.362;8.478;2022-12-07T10:59:34;3.20;1.00
8527;DHT22;4301;48.362;8.478;2022-12-07T11:02:22;3.00;1.00
8527;DHT22;4301;48.362;8.478;2022-12-07T11:05:01;3.10;1.00
8527;DHT22;4301;48.362;8.478;2022-12-07T11:07:38;3.10;1.00
8527;DHT22;4301;48.362;8.478;2022-12-07T11:10:14;3.10;1.00
8527;DHT22;4301;48.362;8.478;2022-12-07T11:12:57;3.20;1.00
8527;DHT22;4301;48.362;8.478;2022-12-07T11:15:41;3.20;1.00
8527;DHT22;4301;48.362;8.478;2022-12-07T11:18:16;3.20;1.00
8527;DHT22;4301;48.362;8.478;2022-12-07T11:20:54;3.20;1.00
8527;DHT22;4301;48.362;8.478;2022-12-07T11:23:29;3.20;1.00
8527;DHT22;4301;48.362;8.478;2022-12-07T11:26:04;3.00;1.00
8527;DHT22;4301;48.362;8.478;2022-12-07T11:28:47;3.10;1.00
8527;DHT22;4301;48.362;8.478;2022-12-07T11:31:24;3.30;1.00
8527;DHT22;4301;48.362;8.478;2022-12-07T11:33:56;3.20;1.00
8527;DHT22;4301;48.362;8.478;2022-12-07T11:36:37;3.30;1.00
8527;DHT22;4301;48.362;8.478;2022-12-07T11:39:12;3.40;1.00
8527;DHT22;4301;48.362;8.478;2022-12-07T11:41:42;3.40;1.00
8527;DHT22;4301;48.362;8.478;2022-12-07T11:44:24;3.40;1.00
8527;DHT22;4301;48.362;8.478;2022-12-07T11:47:00;3.40;1.00
8527;DHT22;4301;48.362;8.478;2022-12-07T11:49:40;3.40;1.00
8527;DHT22;4301;48.362;8.478;2022-12-07T11:52:16;3.40;1.00
8527;DHT22;4301;48.362;8.478;2022-12-07T11:54:46;3.60;1.00
8527;DHT22;4301;48.362;8.478;2022-12-07T11:57:20;3.50;1.00
8527;DHT22;4301;48.362;8.478;2022-12-07T11:59:50;3.60;1.00
8527;DHT22;4301;48.362;8.478;2022-12-07T12:02:24;3.60;1.00
8527;DHT22;4301;48.362;8.478;2022-12-07T12:04:55;3.60;1.00
8527;DHT22;4301;48.362;8.478;2022-12-07T12:07:26;3.60;1.00
8527;DHT22;4301;48.362;8.478;2022-12-07T12:09:57;3.60;1.00
8527;DHT22;4301;48.362;8.478;2022-12-07T12:12:41;3.60;1.00
8527;DHT22;4301;48.362;8.478;2022-12-07T12:15:23;3.60;1.00
8527;DHT22;4301;48.362;8.478;2022-12-07T12:18:18;3.60;1.00
8527;DHT22;4301;48.362;8.478;2022-12-07T12:20:55;3.50;1.00
8527;DHT22;4301;48.362;8.478;2022-12-07T12:23:26;3.60;1.00
8527;DHT22;4301;48.362;8.478;2022-12-07T12:25:57;3.60;1.00
8527;DHT22;4301;48.362;8.478;2022-12-07T12:28:39;3.60;1.00
8527;DHT22;4301;48.362;8.478;2022-12-07T12:31:12;3.60;1.00
8527;DHT22;4301;48.362;8.478;2022-12-07T12:33:45;3.70;1.00
8527;DHT22;4301;48.362;8.478;2022-12-07T12:36:25;3.90;1.00
8527;DHT22;4301;48.362;8.478;2022-12-07T12:39:09;4.00;99.90
8527;DHT22;4301;48.362;8.478;2022-12-07T12:41:56;4.20;1.00
8527;DHT22;4301;48.362;8.478;2022-12-07T12:50:34;4.00;99.90
8527;DHT22;4301;48.362;8.478;2022-12-07T12:53:14;3.90;99.90
8527;DHT22;4301;48.362;8.478;2022-12-07T12:56:05;4.00;60.30
8527;DHT22;4301;48.362;8.478;2022-12-07T12:58:42;4.00;1.00
8527;DHT22;4301;48.362;8.478;2022-12-07T13:01:45;3.90;99.90
8527;DHT22;4301;48.362;8.478;2022-12-07T13:07:53;3.80;99.90
8527;DHT22;4301;48.362;8.478;2022-12-07T13:13:32;4.00;99.90
8527;DHT22;4301;48.362;8.478;2022-12-07T13:22:42;3.80;99.90
8527;DHT22;4301;48.362;8.478;2022-12-07T13:25:12;3.90;99.90
8527;DHT22;4301;48.362;8.478;2022-12-07T13:27:50;3.80;1.00
8527;DHT22;4301;48.362;8.478;2022-12-07T13:30:20;3.80;99.90
8527;DHT22;4301;48.362;8.478;2022-12-07T13:32:52;3.80;1.00
8527;DHT22;4301;48.362;8.478;2022-12-07T13:35:31;3.70;1.00
8527;DHT22;4301;48.362;8.478;2022-12-07T13:37:59;3.60;99.90
8527;DHT22;4301;48.362;8.478;2022-12-07T13:40:29;3.50;1.00
8527;DHT22;4301;48.362;8.478;2022-12-07T13:43:00;3.50;1.00
8527;DHT22;4301;48.362;8.478;2022-12-07T13:45:29;3.50;1.00
8527;DHT22;4301;48.362;8.478;2022-12-07T13:48:24;3.50;1.00
8527;DHT22;4301;48.362;8.478;2022-12-07T13:50:54;3.30;1.00
8527;DHT22;4301;48.362;8.478;2022-12-07T13:53:21;3.30;1.00
8527;DHT22;4301;48.362;8.478;2022-12-07T13:55:50;3.20;1.00
8527;DHT22;4301;48.362;8.478;2022-12-07T13:58:17;3.20;1.00
8527;DHT22;4301;48.362;8.478;2022-12-07T14:00:44;3.10;1.00
8527;DHT22;4301;48.362;8.478;2022-12-07T14:03:27;3.20;1.00
8527;DHT22;4301;48.362;8.478;2022-12-07T14:06:15;3.20;1.00
8527;DHT22;4301;48.362;8.478;2022-12-07T14:08:43;3.20;1.00
8527;DHT22;4301;48.362;8.478;2022-12-07T14:11:16;3.20;1.00
8527;DHT22;4301;48.362;8.478;2022-12-07T14:13:57;3.20;1.00
8527;DHT22;4301;48.362;8.478;2022-12-07T14:16:27;3.10;1.00
8527;DHT22;4301;48.362;8.478;2022-12-07T14:18:56;3.10;1.00
8527;DHT22;4301;48.362;8.478;2022-12-07T14:21:24;3.20;1.00
8527;DHT22;4301;48.362;8.478;2022-12-07T14:24:11;3.20;1.00
8527;DHT22;4301;48.362;8.478;2022-12-07T14:26:41;3.20;1.00
8527;DHT22;4301;48.362;8.478;2022-12-07T14:29:32;3.20;1.00
8527;DHT22;4301;48.362;8.478;2022-12-07T14:32:24;3.10;1.00
8527;DHT22;4301;48.362;8.478;2022-12-07T14:35:01;3.10;1.00
8527;DHT22;4301;48.362;8.478;2022-12-07T14:37:29;3.20;1.00
8527;DHT22;4301;48.362;8.478;2022-12-07T14:39:56;3.20;1.00
8527;DHT22;4301;48.362;8.478;2022-12-07T14:42:28;3.10;1.00
8527;DHT22;4301;48.362;8.478;2022-12-07T14:44:56;3.10;1.00
8527;DHT22;4301;48.362;8.478;2022-12-07T14:47:24;3.00;1.00
8527;DHT22;4301;48.362;8.478;2022-12-07T14:49:52;3.00;1.00
8527;DHT22;4301;48.362;8.478;2022-12-07T14:52:20;2.90;1.00
8527;DHT22;4301;48.362;8.478;2022-12-07T14:54:48;2.90;1.00
8527;DHT22;4301;48.362;8.478;2022-12-07T14:57:15;2.80;1.00
8527;DHT22;4301;48.362;8.478;2022-12-07T14:59:44;2.80;1.00
8527;DHT22;4301;48.362;8.478;2022-12-07T15:02:12;2.70;1.00
8527;DHT22;4301;48.362;8.478;2022-12-07T15:04:40;2.70;1.00
8527;DHT22;4301;48.362;8.478;2022-12-07T15:07:13;2.60;1.00
8527;DHT22;4301;48.362;8.478;2022-12-07T15:09:41;2.50;1.00
8527;DHT22;4301;48.362;8.478;2022-12-07T15:12:08;2.40;1.00
8527;DHT22;4301;48.362;8.478;2022-12-07T15:14:35;2.50;1.00
8527;DHT22;4301;48.362;8.478;2022-12-07T15:17:03;2.30;1.00
8527;DHT22;4301;48.362;8.478;2022-12-07T15:19:30;2.20;1.00
8527;DHT22;4301;48.362;8.478;2022-12-07T15:21:57;2.10;1.00
8527;DHT22;4301;48.362;8.478;2022-12-07T15:24:25;2.10;1.00
8527;DHT22;4301;48.362;8.478;2022-12-07T15:26:52;2.00;1.00
8527;DHT22;4301;48.362;8.478;2022-12-07T15:29:20;1.90;1.00
8527;DHT22;4301;48.362;8.478;2022-12-07T15:31:48;1.90;1.00
8527;DHT22;4301;48.362;8.478;2022-12-07T15:34:16;1.80;1.00
8527;DHT22;4301;48.362;8.478;2022-12-07T15:36:43;1.70;1.00
8527;DHT22;4301;48.362;8.478;2022-12-07T15:39:10;1.60;1.00
8527;DHT22;4301;48.362;8.478;2022-12-07T15:41:37;1.60;1.00
8527;DHT22;4301;48.362;8.478;2022-12-07T15:44:04;1.50;1.00
8527;DHT22;4301;48.362;8.478;2022-12-07T15:46:48;1.30;1.00
8527;DHT22;4301;48.362;8.478;2022-12-07T15:49:18;1.20;1.00
8527;DHT22;4301;48.362;8.478;2022-12-07T15:51:45;1.10;2.90
8527;DHT22;4301;48.362;8.478;2022-12-07T15:54:18;1.10;21.30
8527;DHT22;4301;48.362;8.478;2022-12-07T15:56:45;1.10;21.80
8527;DHT22;4301;48.362;8.478;2022-12-07T15:59:13;1.20;22.30
8527;DHT22;4301;48.362;8.478;2022-12-07T16:01:39;1.10;19.60
8527;DHT22;4301;48.362;8.478;2022-12-07T16:04:06;1.00;19.70
8527;DHT22;4301;48.362;8.478;2022-12-07T16:06:35;1.00;15.90
8527;DHT22;4301;48.362;8.478;2022-12-07T16:09:02;0.90;28.00
8527;DHT22;4301;48.362;8.478;2022-12-07T16:11:29;0.90;38.10
8527;DHT22;4301;48.362;8.478;2022-12-07T16:13:56;0.80;43.60
8527;DHT22;4301;48.362;8.478;2022-12-07T16:16:24;0.70;44.20
8527;DHT22;4301;48.362;8.478;2022-12-07T16:18:51;0.60;51.80
8527;DHT22;4301;48.362;8.478;2022-12-07T16:21:18;0.60;63.00
8527;DHT22;4301;48.362;8.478;2022-12-07T16:23:47;0.60;79.40
8527;DHT22;4301;48.362;8.478;2022-12-07T16:26:15;0.60;73.00
8527;DHT22;4301;48.362;8.478;2022-12-07T16:28:43;0.60;73.00
8527;DHT22;4301;48.362;8.478;2022-12-07T16:31:11;0.70;91.10
8527;DHT22;4301;48.362;8.478;2022-12-07T16:33:40;0.70;83.40
8527;DHT22;4301;48.362;8.478;2022-12-07T16:36:09;0.60;84.00
8527;DHT22;4301;48.362;8.478;2022-12-07T16:38:37;0.40;84.90
8527;DHT22;4301;48.362;8.478;2022-12-07T16:41:06;0.40;99.90
8527;DHT22;4301;48.362;8.478;2022-12-07T16:43:33;0.50;99.90
8527;DHT22;4301;48.362;8.478;2022-12-07T16:46:00;0.50;99.90
8527;DHT22;4301;48.362;8.478;2022-12-07T16:48:27;0.50;99.90
8527;DHT22;4301;48.362;8.478;2022-12-07T16:50:54;0.60;99.90
8527;DHT22;4301;48.362;8.478;2022-12-07T16:53:22;0.60;99.90
8527;DHT22;4301;48.362;8.478;2022-12-07T16:55:50;0.60;99.90
8527;DHT22;4301;48.362;8.478;2022-12-07T16:58:18;0.50;99.90
8527;DHT22;4301;48.362;8.478;2022-12-07T17:00:45;0.40;99.90
8527;DHT22;4301;48.362;8.478;2022-12-07T17:03:12;0.40;99.90
8527;DHT22;4301;48.362;8.478;2022-12-07T17:05:41;0.30;99.90